Weather at Dublin Airport

Public forecast

Using degrees Celsius for public forecast. Weather courtesy of forecast.io.

Current aviation weather report (METAR) for Dublin Airport

Retrieved 2022/07/02 20:30 UTC (22 minutes ago):

EIDW 022030Z 28005KT 9999 FEW018CB BKN035 14/12 Q1015 NOSIG

Aviation forecast (TAF) for Dublin Airport

Retrieved 2022/07/02 18:12 UTC (3 hours ago):

TAF EIDW 021700Z 0218/0318 28010KT 9999 FEW018 SCT040 PROB40 TEMPO 0305/0308 -SHRA BKN010